Deepwater, New Jersey
Current Conditions -  °F | °C
As of 10:51 PM on Sunday 23 Nov 2014 (Local Time) from KILG Reporting Station
Overcast Overcast  
Wind Chill: 12°   Ceiling: 4700
Heat Index: 12°   Visibility: 10mi
Dew Point: 11°   Wind: 7mph
Humidity: 90%   Direction: 150°SSE
Pressure: 29.96"   Gusts: NA
Location:  39.68°N, 75.49°W
Report Text: KILG 240351Z AUTO 15006KT 10SM SCT010 BKN047 OVC055 12/11 A2996 RMK AO2 RAB30E39 SLP145 P0000 T01220106
Loading
Personal Weather Stations






























Interactive Weather Map New forecast layout! Learn more

10-Day Weather Forecast

Advertisements
Track Severe Weather on mobile